Time;durP1;ratioP1;P1;durP2;ratioP2;P2;SDS_P1;SDS_P2;PMS_P1;PMS_P2;Temp;Humidity;BMP_temperature;BMP_pressure;BME280_temperature;BME280_humidity;BME280_pressure;Samples;Min_cycle;Max_cycle;Signal;HPM_P1;HPM_P2
2022/03/10 00:01:10;;;;;;;34.63;26.10;;;8.20;67.00;;;;;;10904575;32;20053;-70
2022/03/10 00:07:12;;;;;;;34.22;23.52;;;8.20;67.00;;;;;;10904510;32;20023;-70
2022/03/10 00:13:14;;;;;;;30.70;23.17;;;8.20;67.10;;;;;;10904323;32;20054;-70
2022/03/10 00:19:16;;;;;;;34.25;24.37;;;8.20;67.10;;;;;;10904347;32;20019;-70
2022/03/10 00:25:21;;;;;;;34.17;23.70;;;8.00;67.30;;;;;;10890826;32;20358;-70
2022/03/10 00:31:23;;;;;;;45.58;32.30;;;8.00;67.40;;;;;;10905947;32;20058;-70
2022/03/10 00:37:25;;;;;;;51.47;35.15;;;7.90;67.40;;;;;;10910569;32;20421;-70
2022/03/10 00:43:27;;;;;;;26.92;20.98;;;7.90;68.30;;;;;;10910383;32;20023;-70
2022/03/10 00:49:29;;;;;;;42.40;30.12;;;7.90;68.00;;;;;;10910271;32;20030;-71
2022/03/10 00:55:31;;;;;;;39.75;26.92;;;7.70;68.10;;;;;;10906303;32;20019;-70
2022/03/10 01:01:34;;;;;;;29.37;21.40;;;7.70;67.90;;;;;;10909813;32;20089;-70
2022/03/10 01:07:36;;;;;;;48.72;33.85;;;7.60;67.80;;;;;;10909603;32;20032;-70
2022/03/10 01:13:38;;;;;;;36.83;25.05;;;7.50;68.30;;;;;;10909225;32;20032;-70
2022/03/10 01:19:40;;;;;;;35.10;24.05;;;7.50;68.40;;;;;;10909264;32;20316;-70
2022/03/10 01:25:42;;;;;;;38.65;25.70;;;7.30;68.40;;;;;;10856423;32;20046;-70
2022/03/10 01:31:44;;;;;;;36.03;25.75;;;7.30;68.30;;;;;;10867781;32;20040;-70
2022/03/10 01:37:46;;;;;;;59.92;39.30;;;7.30;68.20;;;;;;10867858;32;20066;-70
2022/03/10 01:43:58;;;;;;;34.80;23.75;;;7.20;68.20;;;;;;10865047;32;20035;-70
2022/03/10 01:50:01;;;;;;;33.65;23.10;;;7.20;68.30;;;;;;10867835;32;20434;-70
2022/03/10 01:56:03;;;;;;;27.62;21.08;;;7.20;68.30;;;;;;10896560;32;20095;-70
2022/03/10 02:02:07;;;;;;;39.55;25.12;;;7.20;68.40;;;;;;10907726;32;20058;-70
2022/03/10 02:20:55;;;;;;;51.20;36.05;;;6.90;68.70;;;;;;10907303;32;20434;-70
2022/03/10 02:26:57;;;;;;;36.30;26.25;;;6.90;68.60;;;;;;10907254;32;20019;-70
2022/03/10 02:33:00;;;;;;;48.00;31.75;;;6.90;68.90;;;;;;10907023;32;20058;-70
2022/03/10 02:39:02;;;;;;;39.90;31.40;;;6.80;68.90;;;;;;10906859;32;20027;-70
2022/03/10 02:45:05;;;;;;;54.90;39.85;;;6.90;69.50;;;;;;10906707;32;20050;-70
2022/03/10 02:51:07;;;;;;;43.75;27.98;;;7.00;69.70;;;;;;10906428;32;20026;-70
2022/03/10 02:57:10;;;;;;;33.85;24.92;;;6.90;69.60;;;;;;10905907;32;20023;-70
2022/03/10 03:03:13;;;;;;;35.63;24.60;;;6.70;69.60;;;;;;10892860;32;20390;-70
2022/03/10 03:09:15;;;;;;;52.67;32.97;;;6.70;69.60;;;;;;10905958;32;20350;-70
2022/03/10 03:15:18;;;;;;;32.63;23.10;;;6.70;69.40;;;;;;10905861;32;20054;-70
2022/03/10 03:21:20;;;;;;;29.30;22.10;;;6.60;69.30;;;;;;10905526;32;20399;-70
2022/03/10 03:27:23;;;;;;;53.70;36.13;;;6.50;69.70;;;;;;10888170;32;20058;-70
2022/03/10 03:33:25;;;;;;;36.33;22.92;;;6.50;69.60;;;;;;10905387;32;20031;-70
2022/03/10 03:39:27;;;;;;;40.17;24.02;;;6.50;69.50;;;;;;10887741;32;20023;-70
2022/03/10 03:45:30;;;;;;;50.78;31.75;;;6.30;69.50;;;;;;10904871;32;20024;-70
2022/03/10 03:51:32;;;;;;;45.47;32.03;;;6.10;70.00;;;;;;10891351;32;20396;-70
2022/03/10 03:57:34;;;;;;;32.30;23.27;;;6.20;70.40;;;;;;10903876;32;20042;-69
2022/03/10 04:03:37;;;;;;;41.42;22.92;;;6.30;70.40;;;;;;10903378;32;20346;-69
2022/03/10 04:09:39;;;;;;;36.03;19.87;;;6.20;70.10;;;;;;10909465;32;20077;-68
2022/03/10 04:15:41;;;;;;;31.80;21.60;;;6.10;70.10;;;;;;10910239;32;20050;-69
2022/03/10 04:21:43;;;;;;;36.65;23.92;;;6.00;70.10;;;;;;10910044;32;20082;-69
2022/03/10 04:27:45;;;;;;;46.45;31.48;;;6.00;70.00;;;;;;10911247;32;20053;-69
2022/03/10 04:33:48;;;;;;;47.95;35.00;;;6.00;70.20;;;;;;10909736;32;20031;-68
2022/03/10 04:40:10;;;;;;;41.83;26.70;;;6.10;70.50;;;;;;10908627;32;20058;-68
2022/03/10 04:46:12;;;;;;;47.65;32.22;;;6.10;70.40;;;;;;10909245;32;20403;-69
2022/03/10 04:52:14;;;;;;;50.65;34.05;;;6.00;70.30;;;;;;10908928;32;20043;-69
2022/03/10 04:58:25;;;;;;;41.25;25.25;;;6.00;71.00;;;;;;10905852;32;20383;-69
2022/03/10 05:04:28;;;;;;;45.92;32.55;;;6.00;71.10;;;;;;10908632;32;20031;-69
2022/03/10 05:10:50;;;;;;;33.28;22.52;;;5.70;71.00;;;;;;10905825;32;20403;-69
2022/03/10 05:16:52;;;;;;;34.55;26.90;;;5.60;70.80;;;;;;10907823;32;20049;-69
2022/03/10 05:23:00;;;;;;;37.55;23.87;;;5.60;70.90;;;;;;10903777;32;20047;-69
2022/03/10 05:29:02;;;;;;;29.70;21.23;;;5.70;71.30;;;;;;10894190;32;20073;-68
2022/03/10 05:35:06;;;;;;;35.53;24.98;;;5.40;71.20;;;;;;10907733;32;20418;-69
2022/03/10 05:41:09;;;;;;;47.30;28.60;;;5.30;71.80;;;;;;10907337;32;20023;-69
2022/03/10 05:47:12;;;;;;;58.03;40.00;;;5.60;72.30;;;;;;10894445;32;20023;-70
2022/03/10 05:53:15;;;;;;;64.37;41.20;;;6.00;71.30;;;;;;10907891;32;20057;-71
2022/03/10 05:59:20;;;;;;;37.38;30.37;;;6.10;70.30;;;;;;10892780;32;20320;-71
2022/03/10 06:05:25;;;;;;;39.85;27.05;;;6.10;69.60;;;;;;10908045;32;20019;-71
2022/03/10 06:11:27;;;;;;;58.28;37.47;;;5.90;70.30;;;;;;10907368;32;20391;-72
2022/03/10 06:17:30;;;;;;;37.55;29.35;;;6.20;70.60;;;;;;10893637;32;20292;-71
2022/03/10 06:23:32;;;;;;;46.28;33.42;;;6.40;70.30;;;;;;10893542;32;20015;-70
2022/03/10 06:29:34;;;;;;;37.80;26.77;;;6.50;70.20;;;;;;10905972;32;20046;-71
2022/03/10 06:36:02;;;;;;;46.70;32.13;;;6.60;70.00;;;;;;10906235;32;20027;-71
2022/03/10 06:42:05;;;;;;;58.53;34.50;;;6.80;69.80;;;;;;10866667;32;20406;-71
2022/03/10 06:48:07;;;;;;;46.97;33.80;;;6.90;69.50;;;;;;10864472;32;20339;-71
2022/03/10 06:54:10;;;;;;;58.38;39.53;;;7.00;69.50;;;;;;10867446;32;20053;-71
2022/03/10 07:00:13;;;;;;;45.58;30.85;;;7.10;69.50;;;;;;10875631;32;20046;-71
2022/03/10 07:06:15;;;;;;;53.95;39.03;;;7.20;69.40;;;;;;10887243;32;20040;-71
2022/03/10 07:19:20;;;;;;;54.88;38.88;;;7.50;69.00;;;;;;10898934;27;20067;-72
2022/03/10 07:25:22;;;;;;;61.78;41.13;;;7.70;69.30;;;;;;10864212;32;20027;-71
2022/03/10 07:31:29;;;;;;;56.63;42.38;;;7.90;69.20;;;;;;10897045;32;20061;-71
2022/03/10 07:37:31;;;;;;;42.55;31.48;;;8.10;69.20;;;;;;10872026;32;20428;-71
2022/03/10 07:43:40;;;;;;;44.33;34.05;;;8.20;68.80;;;;;;10873249;32;20093;-71
2022/03/10 07:49:43;;;;;;;51.00;36.10;;;8.00;69.00;;;;;;10870163;32;20035;-71
2022/03/10 07:55:45;;;;;;;47.53;31.48;;;8.20;69.50;;;;;;10873836;32;20031;-71
2022/03/10 08:01:48;;;;;;;40.47;28.33;;;8.40;69.20;;;;;;10891529;32;20034;-72
2022/03/10 08:07:50;;;;;;;32.95;25.10;;;8.40;69.20;;;;;;10911662;32;20046;-71
2022/03/10 08:13:54;;;;;;;30.20;20.58;;;8.40;69.50;;;;;;10911341;32;20020;-71
2022/03/10 08:19:56;;;;;;;37.03;25.80;;;8.50;69.50;;;;;;10911321;32;20058;-71
2022/03/10 08:25:58;;;;;;;33.38;24.33;;;8.40;69.80;;;;;;10904594;32;20039;-71
2022/03/10 08:32:00;;;;;;;37.33;24.37;;;8.50;69.90;;;;;;10873358;32;20059;-71
2022/03/10 08:38:02;;;;;;;39.72;25.70;;;8.60;69.80;;;;;;10873275;32;20399;-71
2022/03/10 08:44:05;;;;;;;31.52;23.70;;;8.60;69.90;;;;;;10873092;32;20039;-71
2022/03/10 08:50:07;;;;;;;30.92;21.00;;;8.70;70.00;;;;;;10870932;32;20392;-71
2022/03/10 08:56:10;;;;;;;32.03;18.83;;;8.80;70.00;;;;;;10871981;32;20058;-71
2022/03/10 09:02:12;;;;;;;30.52;21.92;;;8.80;69.80;;;;;;10872230;32;20384;-71
2022/03/10 09:08:14;;;;;;;30.02;20.67;;;8.80;70.20;;;;;;10896188;32;20058;-71
2022/03/10 09:14:16;;;;;;;28.95;20.67;;;9.00;70.10;;;;;;10909369;32;20031;-71
2022/03/10 09:20:19;;;;;;;37.75;25.37;;;9.20;70.00;;;;;;10909050;32;20050;-71
2022/03/10 09:26:22;;;;;;;40.97;28.45;;;9.30;69.10;;;;;;10908812;32;20058;-71
2022/03/10 09:32:24;;;;;;;35.08;21.92;;;9.40;69.50;;;;;;10906382;32;20047;-71
2022/03/10 09:38:44;;;;;;;28.33;19.85;;;9.30;69.00;;;;;;10904740;32;20043;-71
2022/03/10 09:44:47;;;;;;;;;;;9.50;68.70;;;;;;10908594;32;20023;-71
2022/03/10 09:50:50;;;;;;;35.47;22.73;;;9.60;68.10;;;;;;10890609;32;19941;-71
2022/03/10 09:56:55;;;;;;;24.77;18.00;;;9.70;68.20;;;;;;10870327;32;20032;-71
2022/03/10 10:02:57;;;;;;;31.65;21.92;;;9.80;68.00;;;;;;10871473;32;20024;-71
2022/03/10 10:08:59;;;;;;;32.05;19.17;;;9.80;65.30;;;;;;10907368;32;20046;-71
2022/03/10 10:15:09;;;;;;;26.27;16.60;;;9.90;64.90;;;;;;10906527;32;20058;-70
2022/03/10 10:21:18;;;;;;;27.10;17.65;;;10.10;65.70;;;;;;10906351;32;20411;-70
2022/03/10 10:27:23;;;;;;;42.87;24.93;;;10.20;64.60;;;;;;10904125;32;20297;-70
2022/03/10 10:33:27;;;;;;;53.72;36.00;;;10.50;64.80;;;;;;10905983;32;20027;-70
2022/03/10 10:39:29;;;;;;;46.50;32.72;;;10.70;63.70;;;;;;10905630;32;20028;-70
2022/03/10 10:45:35;;;;;;;43.05;24.48;;;10.70;62.00;;;;;;10905818;32;20027;-70
2022/03/10 10:51:58;;;;;;;42.08;27.35;;;10.80;60.70;;;;;;10891984;32;20050;-70
2022/03/10 10:58:09;;;;;;;40.22;23.33;;;11.10;60.90;;;;;;10905445;32;20027;-70
2022/03/10 11:04:12;;;;;;;35.40;22.40;;;11.20;59.30;;;;;;10905198;32;20418;-70
2022/03/10 11:10:33;;;;;;;29.50;18.60;;;11.50;59.70;;;;;;10904648;32;20054;-69
2022/03/10 11:16:58;;;;;;;41.28;23.95;;;11.80;59.00;;;;;;10904415;32;20023;-69
2022/03/10 11:23:21;;;;;;;25.75;16.20;;;12.20;58.50;;;;;;10904739;32;20023;-69
2022/03/10 11:29:26;;;;;;;29.05;18.33;;;12.60;58.30;;;;;;10717790;33;20416;-69
2022/03/10 11:35:39;;;;;;;38.85;29.02;;;13.00;57.60;;;;;;10716858;33;20059;-69
2022/03/10 11:41:50;;;;;;;40.67;26.75;;;13.30;58.80;;;;;;10715162;33;20051;-70
2022/03/10 11:47:52;;;;;;;36.45;23.67;;;13.50;56.80;;;;;;10717517;33;20013;-70
2022/03/10 11:53:56;;;;;;;41.20;22.33;;;13.50;55.20;;;;;;10713753;33;20490;-69
2022/03/10 11:59:58;;;;;;;36.42;22.80;;;13.70;55.80;;;;;;10698220;33;20051;-70
2022/03/10 12:06:02;;;;;;;26.35;18.83;;;14.00;55.30;;;;;;10828318;32;20027;-70
2022/03/10 12:12:20;;;;;;;26.87;17.23;;;14.20;55.20;;;;;;10887942;32;20085;-70
2022/03/10 12:18:25;;;;;;;37.33;25.60;;;14.40;53.80;;;;;;10885254;32;20031;-70
2022/03/10 12:24:34;;;;;;;28.10;21.05;;;14.50;54.00;;;;;;10870433;32;20031;-70
2022/03/10 12:30:43;;;;;;;26.20;18.73;;;14.70;53.50;;;;;;10872479;32;20027;-70
2022/03/10 12:36:51;;;;;;;37.75;25.40;;;14.80;51.70;;;;;;10873414;32;20414;-70
2022/03/10 12:43:01;;;;;;;25.42;17.12;;;14.90;52.10;;;;;;10873079;32;20356;-70
2022/03/10 12:49:04;;;;;;;33.20;23.60;;;14.80;50.70;;;;;;10872952;32;20066;-70
2022/03/10 12:55:09;;;;;;;30.75;23.65;;;14.90;51.10;;;;;;10859129;32;20328;-68
2022/03/10 13:01:11;;;;;;;32.83;23.20;;;14.90;50.00;;;;;;10871218;32;20034;-69
2022/03/10 13:07:15;;;;;;;29.70;19.37;;;14.90;50.50;;;;;;10871063;32;20027;-69
2022/03/10 13:13:29;;;;;;;24.27;15.52;;;15.00;50.10;;;;;;10869867;32;20019;-68
2022/03/10 13:19:58;;;;;;;36.22;22.00;;;15.20;49.00;;;;;;10870506;32;20024;-68
2022/03/10 13:26:01;;;;;;;31.35;19.35;;;15.20;48.70;;;;;;10870422;32;20023;-68
2022/03/10 13:32:36;;;;;;;30.60;21.23;;;15.20;47.80;;;;;;10870005;32;20046;-68
2022/03/10 13:38:42;;;;;;;35.22;24.17;;;15.30;47.30;;;;;;10876532;32;20036;-68
2022/03/10 13:44:44;;;;;;;25.62;19.08;;;15.40;47.30;;;;;;10872454;32;20035;-68
2022/03/10 13:50:47;;;;;;;39.88;26.73;;;15.50;46.80;;;;;;10869935;32;20392;-69
2022/03/10 13:56:53;;;;;;;39.40;28.40;;;15.70;47.80;;;;;;10856318;32;20343;-68
2022/03/10 14:03:12;;;;;;;36.58;19.37;;;15.80;46.50;;;;;;10869378;32;20058;-68
2022/03/10 14:09:20;;;;;;;25.08;17.75;;;15.90;46.80;;;;;;10887194;32;20089;-68
2022/03/10 14:15:27;;;;;;;26.48;18.48;;;16.00;46.80;;;;;;10863976;32;20027;-68
2022/03/10 14:21:29;;;;;;;28.58;19.37;;;16.10;45.30;;;;;;10868545;32;20046;-68
2022/03/10 14:27:43;;;;;;;30.75;22.13;;;16.30;45.70;;;;;;10869252;32;20297;-68
2022/03/10 14:33:46;;;;;;;41.35;27.10;;;16.30;43.80;;;;;;10868293;32;20063;-68
2022/03/10 14:39:49;;;;;;;26.12;18.75;;;16.50;43.60;;;;;;10867928;32;20430;-68
2022/03/10 14:45:53;;;;;;;30.23;23.85;;;16.60;42.60;;;;;;10866972;32;20023;-69
2022/03/10 14:51:57;;;;;;;20.95;15.18;;;16.70;43.50;;;;;;10866712;32;20077;-68
2022/03/10 14:58:00;;;;;;;25.05;19.15;;;16.90;43.20;;;;;;10867330;32;20028;-69
2022/03/10 15:04:03;;;;;;;23.30;15.73;;;17.10;43.00;;;;;;10867443;32;20031;-69
2022/03/10 15:10:15;;;;;;;22.62;16.65;;;17.20;43.70;;;;;;10878141;32;20066;-68
2022/03/10 15:16:20;;;;;;;25.37;20.15;;;17.50;42.50;;;;;;10491486;27;13463497;-68
2022/03/10 15:22:26;;;;;;;28.90;18.50;;;17.80;42.40;;;;;;10825792;32;20371;-69
2022/03/10 15:28:28;;;;;;;27.00;18.62;;;18.10;42.70;;;;;;10826476;32;20036;-69
2022/03/10 15:34:30;;;;;;;25.58;18.25;;;18.50;42.20;;;;;;10825772;32;20055;-69
2022/03/10 15:40:33;;;;;;;25.85;19.20;;;18.90;40.90;;;;;;10825990;33;20032;-69
2022/03/10 15:46:37;;;;;;;20.17;14.80;;;19.40;40.50;;;;;;10888727;32;20362;-69
2022/03/10 15:52:41;;;;;;;21.55;13.30;;;19.90;39.80;;;;;;10903276;32;20404;-69
2022/03/10 15:58:43;;;;;;;20.80;14.32;;;20.30;39.90;;;;;;10903070;32;20041;-69
2022/03/10 16:04:46;;;;;;;20.27;13.15;;;20.80;40.50;;;;;;10874992;32;20336;-69
2022/03/10 16:10:53;;;;;;;41.00;30.77;;;21.20;40.60;;;;;;10872021;32;20069;-69
2022/03/10 16:16:56;;;;;;;44.05;35.38;;;21.30;41.40;;;;;;10870480;32;20031;-69
2022/03/10 16:22:58;;;;;;;52.00;40.20;;;20.70;44.00;;;;;;10886197;32;20045;-69
2022/03/10 16:29:09;;;;;;;49.00;35.45;;;19.90;45.30;;;;;;10891181;32;20043;-69
2022/03/10 16:35:20;;;;;;;40.70;29.95;;;19.40;46.30;;;;;;10894603;32;20074;-69
2022/03/10 16:42:33;;;;;;;44.03;34.93;;;18.70;47.40;;;;;;10904729;32;20371;-69
2022/03/10 16:48:35;;;;;;;40.45;33.83;;;17.90;49.60;;;;;;10906473;32;20067;-69
2022/03/10 16:54:37;;;;;;;49.60;39.03;;;17.30;50.80;;;;;;10908537;32;20028;-69
2022/03/10 17:00:39;;;;;;;53.00;40.17;;;16.30;52.10;;;;;;10902016;32;20039;-69
2022/03/10 17:07:29;;;;;;;39.88;30.88;;;15.70;53.20;;;;;;10857741;32;20012;-69
2022/03/10 17:14:35;;;;;;;43.47;31.45;;;15.30;54.70;;;;;;10870284;32;20383;-69
2022/03/10 17:20:37;;;;;;;46.30;32.08;;;14.90;55.60;;;;;;10870742;32;20430;-69
2022/03/10 17:26:39;;;;;;;33.97;27.20;;;14.60;56.30;;;;;;10856678;32;20046;-69
2022/03/10 17:33:00;;;;;;;37.38;28.12;;;14.50;56.80;;;;;;10870303;32;20359;-69
2022/03/10 17:39:02;;;;;;;35.50;25.17;;;14.40;57.00;;;;;;10883104;32;20031;-69
2022/03/10 17:45:06;;;;;;;39.20;28.20;;;14.30;57.00;;;;;;10879121;32;20067;-69
2022/03/10 17:51:08;;;;;;;42.35;29.92;;;14.20;57.20;;;;;;10904993;32;20026;-69
2022/03/10 17:57:11;;;;;;;44.30;31.60;;;14.10;57.70;;;;;;10902722;32;20027;-68
2022/03/10 18:03:13;;;;;;;46.05;30.58;;;14.00;58.70;;;;;;10906660;32;20427;-69
2022/03/10 18:09:15;;;;;;;43.80;32.55;;;14.00;58.50;;;;;;10897912;32;20067;-69
2022/03/10 18:15:17;;;;;;;35.10;25.00;;;13.80;59.20;;;;;;10865307;32;20069;-69
2022/03/10 18:21:19;;;;;;;33.05;24.83;;;13.80;59.00;;;;;;10868749;32;20043;-69
2022/03/10 18:27:21;;;;;;;35.67;26.20;;;13.60;59.20;;;;;;10867768;32;20058;-68
2022/03/10 18:33:24;;;;;;;33.83;25.88;;;13.50;58.90;;;;;;10868220;32;20059;-69
2022/03/10 18:39:26;;;;;;;31.92;20.80;;;13.40;59.20;;;;;;10867793;32;20085;-69
2022/03/10 18:45:28;;;;;;;29.37;22.95;;;13.20;59.40;;;;;;10854689;32;20360;-69
2022/03/10 18:51:30;;;;;;;31.52;20.95;;;13.10;59.70;;;;;;10864124;32;20058;-69
2022/03/10 18:57:33;;;;;;;26.02;20.58;;;12.90;59.90;;;;;;10863426;32;20062;-69
2022/03/10 19:03:35;;;;;;;24.73;17.98;;;12.80;60.20;;;;;;10863024;32;20062;-68
2022/03/10 19:09:37;;;;;;;27.40;17.80;;;12.80;60.40;;;;;;10863497;32;20035;-68
2022/03/10 19:15:39;;;;;;;31.80;22.98;;;12.70;60.50;;;;;;10867062;32;20028;-68
2022/03/10 19:21:44;;;;;;;36.05;24.05;;;12.70;60.90;;;;;;10866946;32;20023;-68
2022/03/10 19:27:46;;;;;;;33.42;23.45;;;12.70;61.20;;;;;;10849554;32;20074;-68
2022/03/10 19:33:48;;;;;;;28.40;20.45;;;12.50;61.30;;;;;;10862509;32;20039;-68
2022/03/10 19:39:52;;;;;;;20.62;17.33;;;12.30;61.50;;;;;;10873628;32;20020;-69
2022/03/10 19:45:55;;;;;;;30.83;21.10;;;12.20;61.80;;;;;;10876488;32;20040;-69
2022/03/10 19:51:58;;;;;;;30.80;21.42;;;12.20;62.00;;;;;;10908768;32;20057;-70
2022/03/10 19:58:00;;;;;;;25.25;19.00;;;12.00;62.10;;;;;;10894504;32;20036;-68
2022/03/10 20:04:03;;;;;;;26.58;20.60;;;12.00;62.20;;;;;;10910933;32;20065;-68
2022/03/10 20:10:06;;;;;;;28.60;20.58;;;11.80;62.50;;;;;;10910559;32;20067;-68
2022/03/10 20:16:08;;;;;;;37.65;23.42;;;11.70;62.70;;;;;;10897074;32;20027;-69
2022/03/10 20:22:10;;;;;;;35.03;24.73;;;11.70;62.70;;;;;;10910244;32;20027;-69
2022/03/10 20:28:12;;;;;;;32.15;23.23;;;11.60;63.00;;;;;;10892576;32;20312;-69
2022/03/10 20:34:15;;;;;;;38.42;26.45;;;11.50;63.20;;;;;;10909773;32;20077;-69
2022/03/10 20:40:17;;;;;;;43.95;30.52;;;11.50;63.40;;;;;;10909630;32;20407;-69
2022/03/10 20:46:21;;;;;;;44.65;32.63;;;11.40;64.00;;;;;;10895454;32;20028;-69
2022/03/10 20:52:23;;;;;;;39.60;28.20;;;11.40;64.50;;;;;;10909087;32;20383;-69
2022/03/10 20:58:26;;;;;;;32.72;23.33;;;11.40;63.90;;;;;;10908903;32;20379;-69
2022/03/10 21:04:29;;;;;;;41.47;31.33;;;11.20;64.10;;;;;;10904655;32;20062;-69
2022/03/10 21:10:31;;;;;;;42.40;33.13;;;11.00;64.30;;;;;;10895156;32;20050;-69
2022/03/10 21:16:34;;;;;;;52.13;38.28;;;11.00;65.10;;;;;;10908258;32;20085;-69
2022/03/10 21:22:36;;;;;;;44.85;31.15;;;10.90;65.40;;;;;;10890359;32;20055;-68
2022/03/10 21:28:38;;;;;;;38.80;28.87;;;10.30;66.10;;;;;;10903740;32;20058;-69
2022/03/10 21:34:41;;;;;;;34.03;24.17;;;10.10;68.10;;;;;;10907713;32;20343;-69
2022/03/10 21:40:44;;;;;;;41.45;29.65;;;10.20;68.60;;;;;;10905393;32;20046;-69
2022/03/10 21:46:46;;;;;;;37.17;28.98;;;10.40;68.60;;;;;;10904245;32;20058;-69
2022/03/10 21:52:48;;;;;;;48.65;36.40;;;10.30;68.60;;;;;;10902898;32;20057;-69
2022/03/10 21:58:52;;;;;;;43.15;30.35;;;10.30;68.90;;;;;;10905825;32;20441;-69
2022/03/10 22:04:54;;;;;;;51.00;36.25;;;10.10;69.10;;;;;;10906786;32;20031;-69
2022/03/10 22:10:56;;;;;;;35.58;26.23;;;10.10;69.50;;;;;;10906373;32;20093;-69
2022/03/10 22:16:58;;;;;;;40.50;25.55;;;10.00;69.60;;;;;;10905888;32;20050;-69
2022/03/10 22:23:01;;;;;;;39.17;27.40;;;10.10;69.20;;;;;;10903077;32;20035;-69
2022/03/10 22:29:04;;;;;;;50.17;33.97;;;10.20;69.20;;;;;;10892357;32;20054;-68
2022/03/10 22:35:07;;;;;;;32.00;21.17;;;10.20;68.90;;;;;;10905410;32;20063;-68
2022/03/10 22:41:09;;;;;;;38.67;26.33;;;10.10;68.90;;;;;;10905314;32;20031;-69
2022/03/10 22:47:11;;;;;;;36.40;22.35;;;10.00;69.00;;;;;;10905032;32;20027;-69
2022/03/10 22:59:35;;;;;;;37.63;27.75;;;9.90;68.80;;;;;;10905869;32;20031;-69
2022/03/10 23:12:18;;;;;;;33.88;22.62;;;9.80;68.70;;;;;;10826948;32;20027;-69
2022/03/10 23:18:22;;;;;;;33.50;22.50;;;9.80;69.00;;;;;;10829983;27;20063;-69
2022/03/10 23:24:24;;;;;;;29.70;18.90;;;9.80;69.00;;;;;;10828161;32;20051;-69
2022/03/10 23:30:26;;;;;;;38.33;25.98;;;9.70;69.20;;;;;;10826769;32;20486;-70
2022/03/10 23:36:28;;;;;;;37.00;25.37;;;9.70;69.20;;;;;;10827677;33;20020;-70
2022/03/10 23:42:30;;;;;;;34.13;23.77;;;9.80;69.10;;;;;;10866824;32;20050;-70
2022/03/10 23:48:32;;;;;;;44.05;31.60;;;9.80;69.20;;;;;;10905068;32;20031;-69
2022/03/10 23:54:34;;;;;;;43.58;31.27;;;9.90;69.20;;;;;;10904784;32;20031;-69
